KADS/ADS METAR and TAF weather

Enter ICAO airport designator
Station Type Date Time Source
KADS METAR 2018/10/21 03:35 UTC NOAA

KADS 210335Z AUTO 03005KT 10SM CLR 15/07 A3034 RMK AO2 T01520070


Station Type Date Time Source
KADS Decoded METAR 2018/10/21 03:35 UTC NOAA

Dallas / Addison Airport, TX, United States (KADS) 32-58N 096-50W
Oct 20, 2018 - 11:35 PM EDT / 2018.10.21 0335 UTC
Wind: from the NNE (030 degrees) at 6 MPH (5 KT):0
Visibility: 10 mile(s):0
Sky conditions: clear
Temperature: 59.4 F (15.2 C)
Dew Point: 44.6 F (7.0 C)
Relative Humidity: 57%
Pressure (altimeter): 30.34 in. Hg (1027 hPa)
ob: KADS 210335Z AUTO 03005KT 10SM CLR 15/07 A3034 RMK AO2 T01520070
cycle: 3

Station Type Date Time Source
KADS TAF UTC NOAA

Error!


Example: see airport list